Time;durP1;ratioP1;P1;durP2;ratioP2;P2;SDS_P1;SDS_P2;PMS_P1;PMS_P2;Temp;Humidity;BMP_temperature;BMP_pressure;BME280_temperature;BME280_humidity;BME280_pressure;Samples;Min_cycle;Max_cycle;Signal;HPM_P1;HPM_P2
2024/04/23 00:02:25;;;;;;;11.20;5.00;;;1.40;99.90;;;;;;5345783;26;20523;-71
2024/04/23 00:04:52;;;;;;;11.83;5.83;;;1.30;99.90;;;;;;5339368;26;20515;-71
2024/04/23 00:07:21;;;;;;;10.97;5.37;;;1.50;99.90;;;;;;5337415;26;20486;-69
2024/04/23 00:09:49;;;;;;;11.23;4.83;;;1.50;99.90;;;;;;5343895;26;20591;-69
2024/04/23 00:12:21;;;;;;;11.73;5.10;;;1.50;99.90;;;;;;5325158;26;20588;-69
2024/04/23 00:14:48;;;;;;;11.00;5.77;;;1.30;99.90;;;;;;5338555;26;20558;-70
2024/04/23 00:17:18;;;;;;;11.77;6.07;;;1.10;99.90;;;;;;5348414;26;20474;-70
2024/04/23 00:19:45;;;;;;;12.30;5.60;;;1.10;99.90;;;;;;5337444;26;20472;-70
2024/04/23 00:22:15;;;;;;;11.65;5.20;;;1.20;99.90;;;;;;5338208;26;20462;-70
2024/04/23 00:24:42;;;;;;;10.82;5.20;;;1.20;99.90;;;;;;5352105;26;20240;-69
2024/04/23 00:27:12;;;;;;;10.57;4.80;;;1.00;99.90;;;;;;5338546;26;20237;-71
2024/04/23 00:29:41;;;;;;;12.30;5.90;;;0.80;99.90;;;;;;5337129;26;20470;-70
2024/04/23 00:32:12;;;;;;;13.43;5.73;;;0.90;99.90;;;;;;5339869;26;20547;-71
2024/04/23 00:34:39;;;;;;;11.73;5.72;;;1.00;99.90;;;;;;5337903;26;20531;-70
2024/04/23 00:37:09;;;;;;;13.17;6.23;;;1.00;99.90;;;;;;5338703;26;20231;-69
2024/04/23 00:39:36;;;;;;;12.65;5.85;;;1.10;99.90;;;;;;5349599;26;21043;-69
2024/04/23 00:42:05;;;;;;;13.73;5.30;;;1.00;99.90;;;;;;5338563;26;20243;-71
2024/04/23 00:44:33;;;;;;;12.35;6.20;;;0.80;99.90;;;;;;5345778;26;20831;-71
2024/04/23 00:47:06;;;;;;;14.07;6.70;;;0.70;99.90;;;;;;5345384;26;20277;-70
2024/04/23 00:49:33;;;;;;;12.85;6.13;;;0.60;99.90;;;;;;5336871;26;20493;-69
2024/04/23 00:52:04;;;;;;;11.85;6.22;;;0.70;99.90;;;;;;5338057;26;20240;-70
2024/04/23 00:54:31;;;;;;;13.35;5.97;;;0.70;99.90;;;;;;5338169;26;20231;-71
2024/04/23 00:57:02;;;;;;;13.45;6.32;;;0.70;99.90;;;;;;5339636;26;20321;-70
2024/04/23 00:59:29;;;;;;;12.80;6.25;;;0.70;99.90;;;;;;5336902;26;20306;-71
2024/04/23 01:01:59;;;;;;;12.98;5.93;;;0.80;99.90;;;;;;5342251;26;20308;-69
2024/04/23 01:04:29;;;;;;;12.65;6.03;;;0.70;99.90;;;;;;5353891;26;20280;-69
2024/04/23 01:06:59;;;;;;;13.27;5.70;;;0.70;99.90;;;;;;5338095;26;20337;-70
2024/04/23 01:09:27;;;;;;;12.80;6.07;;;0.70;99.90;;;;;;5337345;26;20235;-70
2024/04/23 01:11:57;;;;;;;12.85;6.13;;;0.60;99.90;;;;;;5339687;26;20335;-69
2024/04/23 01:14:24;;;;;;;13.23;6.53;;;0.60;99.90;;;;;;5337443;26;20242;-69
2024/04/23 01:16:54;;;;;;;14.32;6.82;;;0.70;99.90;;;;;;5343159;26;20233;-71
2024/04/23 01:19:28;;;;;;;12.77;6.47;;;0.70;99.90;;;;;;5340004;26;20341;-68
2024/04/23 01:22:06;;;;;;;13.43;6.72;;;0.70;99.90;;;;;;5340496;26;20332;-70
2024/04/23 01:24:37;;;;;;;12.23;5.90;;;0.70;99.90;;;;;;5341245;26;20572;-70
2024/04/23 01:27:09;;;;;;;13.30;6.40;;;0.70;99.90;;;;;;5340231;26;20775;-70
2024/04/23 01:29:37;;;;;;;12.85;5.95;;;0.60;99.90;;;;;;5340101;26;20238;-69
2024/04/23 01:32:09;;;;;;;15.60;7.90;;;0.60;99.90;;;;;;5339493;26;20897;-69
2024/04/23 01:34:37;;;;;;;13.48;6.82;;;0.50;99.90;;;;;;5340797;26;20278;-69
2024/04/23 01:37:09;;;;;;;14.48;7.25;;;0.50;99.90;;;;;;5340913;26;20332;-70
2024/04/23 01:39:37;;;;;;;10.88;5.95;;;0.50;99.90;;;;;;5338619;26;20293;-70
2024/04/23 01:42:10;;;;;;;13.73;6.38;;;0.40;99.90;;;;;;5340688;26;20286;-70
2024/04/23 01:44:39;;;;;;;12.30;6.47;;;0.20;99.90;;;;;;5340879;26;20274;-71
2024/04/23 01:47:09;;;;;;;15.10;7.40;;;0.20;99.90;;;;;;5340837;26;20238;-69
2024/04/23 01:49:36;;;;;;;12.68;6.10;;;0.20;99.90;;;;;;5340248;26;20320;-70
2024/04/23 01:52:07;;;;;;;13.27;6.60;;;0.20;99.90;;;;;;5340760;26;20883;-71
2024/04/23 01:54:34;;;;;;;13.68;6.43;;;0.10;99.90;;;;;;5340870;26;20235;-70
2024/04/23 01:57:07;;;;;;;14.73;7.15;;;0.00;99.90;;;;;;5339975;26;20242;-69
2024/04/23 01:59:44;;;;;;;14.00;6.90;;;0.10;99.90;;;;;;5338126;26;20298;-69
2024/04/23 02:02:14;;;;;;;12.63;6.18;;;0.20;99.90;;;;;;5339621;26;20236;-69
2024/04/23 02:04:41;;;;;;;12.75;6.75;;;0.20;99.90;;;;;;5339060;26;20242;-69
2024/04/23 02:07:12;;;;;;;14.00;6.72;;;0.20;99.90;;;;;;5339774;26;20235;-70
2024/04/23 02:09:41;;;;;;;15.20;7.40;;;0.30;99.90;;;;;;5340406;26;20294;-69
2024/04/23 02:12:14;;;;;;;12.90;7.05;;;0.40;99.90;;;;;;5340846;26;20230;-68
2024/04/23 02:14:44;;;;;;;15.20;8.10;;;0.30;99.90;;;;;;5341599;26;20234;-68
2024/04/23 02:17:14;;;;;;;16.90;7.72;;;0.20;99.90;;;;;;5340530;26;20236;-69
2024/04/23 02:19:41;;;;;;;15.25;7.30;;;0.10;99.90;;;;;;5340272;26;20292;-69
2024/04/23 02:22:11;;;;;;;15.10;7.75;;;0.20;99.90;;;;;;5340801;26;20229;-70
2024/04/23 02:24:38;;;;;;;13.07;6.78;;;0.10;99.90;;;;;;5339903;26;20243;-68
2024/04/23 02:27:08;;;;;;;13.30;7.38;;;0.10;99.90;;;;;;5339298;26;20704;-70
2024/04/23 02:29:35;;;;;;;15.48;7.50;;;0.10;99.90;;;;;;5338510;26;20285;-71
2024/04/23 02:32:07;;;;;;;13.65;7.00;;;0.20;99.90;;;;;;5338635;26;20384;-68
2024/04/23 02:34:35;;;;;;;14.95;8.02;;;0.30;99.90;;;;;;5339734;26;20787;-69
2024/04/23 02:37:04;;;;;;;13.73;6.50;;;0.20;99.90;;;;;;5339802;26;20242;-69
2024/04/23 02:39:32;;;;;;;15.40;7.20;;;0.00;99.90;;;;;;5339372;26;20246;-68
2024/04/23 02:42:01;;;;;;;13.98;6.50;;;0.10;99.90;;;;;;5339547;26;20273;-69
2024/04/23 02:44:30;;;;;;;13.18;7.13;;;0.00;99.90;;;;;;5339546;26;20231;-69
2024/04/23 02:46:59;;;;;;;13.00;6.57;;;0.20;99.90;;;;;;5340181;26;20234;-68
2024/04/23 02:49:29;;;;;;;13.80;7.00;;;0.10;99.90;;;;;;5339110;26;20748;-68
2024/04/23 02:52:01;;;;;;;15.35;8.15;;;0.20;99.90;;;;;;5340142;26;20241;-69
2024/04/23 02:54:28;;;;;;;14.10;7.68;;;0.10;99.90;;;;;;5339865;26;20231;-71
2024/04/23 02:56:57;;;;;;;16.45;7.68;;;0.00;99.90;;;;;;5339411;26;20237;-69
2024/04/23 02:59:24;;;;;;;14.02;7.90;;;0.00;99.90;;;;;;5338804;26;20235;-68
2024/04/23 03:02:03;;;;;;;14.45;8.20;;;0.00;99.90;;;;;;5339606;26;20310;-69
2024/04/23 03:04:33;;;;;;;13.70;6.88;;;0.00;99.90;;;;;;5341412;26;20340;-70
2024/04/23 03:07:03;;;;;;;13.63;7.13;;;-0.10;99.90;;;;;;5339865;26;20238;-70
2024/04/23 03:09:30;;;;;;;14.40;7.78;;;-0.10;99.90;;;;;;5338551;26;20262;-71
2024/04/23 03:12:00;;;;;;;15.60;8.18;;;-0.10;99.90;;;;;;5339604;26;20781;-70
2024/04/23 03:14:27;;;;;;;16.23;7.10;;;0.00;99.90;;;;;;5339565;26;20236;-68
2024/04/23 03:16:57;;;;;;;15.38;7.72;;;-0.10;99.90;;;;;;5340195;26;20573;-69
2024/04/23 03:19:25;;;;;;;15.02;7.22;;;-0.20;99.90;;;;;;5339208;26;20225;-70
2024/04/23 03:21:59;;;;;;;13.57;7.00;;;-0.10;99.90;;;;;;5339638;26;20280;-72
2024/04/23 03:24:26;;;;;;;14.40;7.55;;;-0.30;99.90;;;;;;5339790;26;20282;-70
2024/04/23 03:26:56;;;;;;;15.65;8.40;;;-0.20;99.90;;;;;;5339827;26;20271;-70
2024/04/23 03:29:23;;;;;;;13.32;7.75;;;-0.20;99.90;;;;;;5338896;26;20275;-69
2024/04/23 03:32:01;;;;;;;14.43;7.03;;;-0.20;99.90;;;;;;5339689;26;20291;-69
2024/04/23 03:34:29;;;;;;;13.75;7.55;;;-0.20;99.90;;;;;;5338603;26;20246;-69
2024/04/23 03:37:01;;;;;;;15.80;8.30;;;-0.30;99.90;;;;;;5339307;26;20238;-70
2024/04/23 03:39:31;;;;;;;16.42;8.23;;;-0.20;99.90;;;;;;5338307;26;20270;-69
2024/04/23 03:42:02;;;;;;;14.63;6.38;;;-0.10;99.90;;;;;;5339465;26;20230;-70
2024/04/23 03:44:32;;;;;;;14.35;7.22;;;-0.20;99.90;;;;;;5339555;26;20854;-68
2024/04/23 03:47:06;;;;;;;15.68;7.95;;;-0.20;99.90;;;;;;5341714;26;20238;-69
2024/04/23 03:49:36;;;;;;;16.20;8.02;;;-0.20;99.90;;;;;;5330034;26;20302;-70
2024/04/23 03:52:10;;;;;;;15.88;8.30;;;-0.20;99.90;;;;;;5334815;26;20265;-69
2024/04/23 03:54:40;;;;;;;15.02;7.57;;;-0.40;99.90;;;;;;5340949;26;20277;-69
2024/04/23 03:57:08;;;;;;;14.30;7.45;;;-0.40;99.90;;;;;;5340325;26;20249;-72
2024/04/23 03:59:37;;;;;;;15.88;8.95;;;-0.40;99.90;;;;;;5339504;26;20237;-70
2024/04/23 04:07:41;;;;;;;16.52;8.45;;;-0.50;99.90;;;;;;5340432;26;20808;-69
2024/04/23 04:10:10;;;;;;;17.92;8.73;;;-0.60;99.90;;;;;;5339259;26;20579;-69
2024/04/23 04:12:40;;;;;;;14.38;7.95;;;-0.50;99.90;;;;;;5338802;26;20334;-70
2024/04/23 04:15:10;;;;;;;13.40;7.40;;;-0.30;99.90;;;;;;5338953;26;20273;-70
2024/04/23 04:17:37;;;;;;;14.77;7.63;;;-0.20;99.90;;;;;;5338949;26;20249;-71
2024/04/23 04:20:08;;;;;;;15.00;7.60;;;-0.30;99.90;;;;;;5338101;26;20241;-72
2024/04/23 04:22:38;;;;;;;12.90;6.57;;;-0.30;99.90;;;;;;5339132;26;20233;-70
2024/04/23 04:25:08;;;;;;;14.60;8.32;;;-0.30;99.90;;;;;;5338774;26;20221;-71
2024/04/23 04:27:35;;;;;;;14.10;7.22;;;-0.40;99.90;;;;;;5338176;26;20233;-72
2024/04/23 04:30:06;;;;;;;17.20;7.88;;;-0.50;99.90;;;;;;5337935;26;20280;-71
2024/04/23 04:32:33;;;;;;;16.77;7.65;;;-0.50;99.90;;;;;;5338988;26;20815;-70
2024/04/23 04:35:03;;;;;;;14.65;7.75;;;-0.70;99.90;;;;;;5337541;26;20229;-69
2024/04/23 04:37:33;;;;;;;13.60;7.10;;;-0.80;99.90;;;;;;5337258;26;20248;-69
2024/04/23 04:40:06;;;;;;;14.27;7.03;;;-0.70;99.90;;;;;;5334221;26;20233;-70
2024/04/23 04:42:33;;;;;;;16.08;7.55;;;-0.60;99.90;;;;;;5336853;26;20284;-72
2024/04/23 04:45:03;;;;;;;15.13;7.40;;;-0.50;99.90;;;;;;5339187;26;20316;-70
2024/04/23 04:47:30;;;;;;;14.75;8.10;;;-0.50;99.90;;;;;;5338653;26;20349;-71
2024/04/23 04:50:00;;;;;;;16.02;8.27;;;-0.40;99.90;;;;;;5337834;26;20241;-72
2024/04/23 04:52:27;;;;;;;19.83;7.95;;;-0.30;99.90;;;;;;5338770;26;21084;-71
2024/04/23 04:54:57;;;;;;;15.32;7.65;;;-0.30;99.90;;;;;;5341937;26;20399;-72
2024/04/23 04:57:27;;;;;;;15.35;7.47;;;-0.30;99.90;;;;;;5345728;26;20237;-71
2024/04/23 04:59:57;;;;;;;16.90;8.63;;;-0.30;99.90;;;;;;5338533;26;20234;-71
2024/04/23 05:02:24;;;;;;;13.63;7.55;;;-0.30;99.90;;;;;;5342109;26;20242;-74
2024/04/23 05:04:54;;;;;;;17.20;8.85;;;-0.30;99.90;;;;;;5333802;26;20241;-70
2024/04/23 05:07:21;;;;;;;19.25;9.32;;;-0.40;99.90;;;;;;5338765;26;20355;-71
2024/04/23 05:09:51;;;;;;;14.73;8.23;;;-0.30;99.90;;;;;;5349351;26;20804;-71
2024/04/23 05:12:18;;;;;;;17.45;8.73;;;-0.20;99.90;;;;;;5338925;26;20230;-73
2024/04/23 05:14:51;;;;;;;16.13;8.50;;;-0.10;99.90;;;;;;5341427;26;20745;-72
2024/04/23 05:17:19;;;;;;;16.15;8.75;;;-0.10;99.90;;;;;;5341050;26;20235;-72
2024/04/23 05:19:48;;;;;;;17.25;8.27;;;0.00;99.90;;;;;;5348930;26;20250;-71
2024/04/23 05:22:16;;;;;;;16.45;8.23;;;0.00;99.90;;;;;;5352704;26;20665;-71
2024/04/23 05:24:45;;;;;;;15.73;7.93;;;0.20;99.90;;;;;;5344713;26;20320;-73
2024/04/23 05:27:12;;;;;;;14.25;8.05;;;0.30;99.90;;;;;;5335400;26;20349;-69
2024/04/23 05:29:43;;;;;;;17.20;8.15;;;0.30;99.90;;;;;;5339660;26;20239;-71
2024/04/23 05:35:02;;;;;;;15.52;7.45;;;0.40;99.90;;;;;;5325916;26;20243;-72
2024/04/23 05:37:32;;;;;;;15.55;7.43;;;0.50;99.90;;;;;;5329571;26;20239;-72
2024/04/23 05:40:01;;;;;;;15.85;7.50;;;0.50;99.90;;;;;;5330045;26;20772;-71
2024/04/23 05:42:31;;;;;;;15.38;8.02;;;0.50;99.90;;;;;;5326838;26;20279;-71
2024/04/23 05:45:01;;;;;;;14.77;8.05;;;0.60;99.90;;;;;;5327356;26;20306;-70
2024/04/23 05:47:33;;;;;;;17.15;8.07;;;0.90;99.90;;;;;;5338842;26;20241;-71
2024/04/23 05:50:40;;;;;;;20.13;7.97;;;1.00;99.90;;;;;;5336975;26;20306;-72
2024/04/23 05:53:47;;;;;;;16.60;8.55;;;1.00;99.90;;;;;;5335450;26;20239;-71
2024/04/23 05:56:17;;;;;;;14.57;7.50;;;1.20;99.90;;;;;;5339760;26;20277;-70
2024/04/23 05:58:44;;;;;;;14.75;7.72;;;1.40;99.90;;;;;;5346709;26;20478;-70
2024/04/23 06:01:15;;;;;;;12.87;6.40;;;1.40;99.90;;;;;;5358484;26;20359;-71
2024/04/23 06:03:48;;;;;;;13.52;7.07;;;1.60;99.90;;;;;;5341603;26;20488;-72
2024/04/23 06:06:18;;;;;;;13.68;7.80;;;1.80;99.90;;;;;;5349745;26;20235;-70
2024/04/23 06:08:45;;;;;;;12.25;6.70;;;1.90;99.90;;;;;;5350755;26;20859;-71
2024/04/23 06:11:15;;;;;;;15.18;6.97;;;2.00;99.90;;;;;;5352181;26;20867;-71
2024/04/23 06:13:45;;;;;;;14.13;7.07;;;2.00;99.90;;;;;;5352516;26;20285;-69
2024/04/23 06:16:15;;;;;;;12.98;6.13;;;2.00;99.90;;;;;;5352882;26;20225;-70
2024/04/23 06:18:42;;;;;;;12.65;6.50;;;2.10;99.90;;;;;;5353033;26;20278;-70
2024/04/23 06:21:15;;;;;;;16.00;6.23;;;2.10;99.90;;;;;;5351602;26;20240;-71
2024/04/23 06:23:42;;;;;;;14.00;6.85;;;2.20;99.90;;;;;;5356415;26;20481;-71
2024/04/23 06:26:11;;;;;;;14.20;7.00;;;2.30;99.90;;;;;;5335305;26;20239;-70
2024/04/23 06:28:38;;;;;;;12.55;5.40;;;2.30;99.90;;;;;;5354527;26;20247;-71
2024/04/23 06:31:12;;;;;;;12.65;6.85;;;2.30;99.90;;;;;;5348851;26;20246;-70
2024/04/23 06:33:39;;;;;;;11.95;6.20;;;2.50;99.90;;;;;;5350441;26;20232;-69
2024/04/23 06:36:09;;;;;;;12.80;7.15;;;2.50;99.90;;;;;;5354238;26;20247;-70
2024/04/23 06:38:39;;;;;;;13.15;6.07;;;2.50;99.90;;;;;;5352288;26;20239;-70
2024/04/23 06:41:09;;;;;;;12.48;6.47;;;2.60;99.90;;;;;;5352297;26;20239;-70
2024/04/23 06:43:42;;;;;;;11.10;5.57;;;2.70;99.90;;;;;;5356471;26;20290;-70
2024/04/23 06:46:11;;;;;;;12.52;6.00;;;2.80;99.90;;;;;;5358265;26;20246;-69
2024/04/23 06:48:38;;;;;;;11.90;6.23;;;2.80;99.90;;;;;;5349597;26;21205;-70
2024/04/23 06:51:08;;;;;;;12.10;6.20;;;2.90;99.90;;;;;;5346032;26;20538;-70
2024/04/23 06:53:35;;;;;;;12.10;6.05;;;2.90;99.90;;;;;;5347869;26;21069;-74
2024/04/23 06:56:08;;;;;;;12.83;6.60;;;3.00;99.90;;;;;;5345067;26;21025;-71
2024/04/23 06:58:38;;;;;;;15.93;6.10;;;3.10;99.90;;;;;;5352898;26;20470;-71
2024/04/23 07:01:05;;;;;;;12.27;6.47;;;3.20;99.90;;;;;;5347184;26;20585;-72
2024/04/23 07:03:35;;;;;;;10.40;5.73;;;3.40;99.90;;;;;;5355310;26;20516;-71
2024/04/23 07:06:03;;;;;;;11.33;5.97;;;3.50;99.90;;;;;;5357043;26;20899;-71
2024/04/23 07:08:32;;;;;;;12.33;6.27;;;3.60;99.90;;;;;;5353506;26;20530;-73
2024/04/23 07:11:00;;;;;;;13.00;6.53;;;3.70;99.90;;;;;;5353075;26;20528;-70
2024/04/23 07:13:32;;;;;;;10.70;5.70;;;3.70;99.90;;;;;;5354845;26;20479;-71
2024/04/23 07:16:00;;;;;;;12.70;6.50;;;3.70;99.90;;;;;;5351647;26;20470;-71
2024/04/23 07:18:29;;;;;;;14.40;6.90;;;3.70;99.90;;;;;;5351896;26;20472;-70
2024/04/23 07:20:57;;;;;;;12.07;6.30;;;3.80;99.90;;;;;;5347336;26;21022;-70
2024/04/23 07:23:27;;;;;;;11.37;6.50;;;3.80;99.90;;;;;;5351583;26;20471;-70
2024/04/23 07:25:54;;;;;;;10.90;6.07;;;4.00;99.90;;;;;;5356061;26;20824;-70
2024/04/23 07:28:24;;;;;;;10.83;5.77;;;4.10;99.90;;;;;;5355084;26;20491;-70
2024/04/23 07:30:54;;;;;;;12.70;6.20;;;4.20;99.90;;;;;;5352145;26;20548;-70
2024/04/23 07:33:23;;;;;;;13.83;6.63;;;4.20;99.90;;;;;;5347241;26;20535;-71
2024/04/23 07:35:51;;;;;;;12.60;6.33;;;4.30;99.90;;;;;;5348845;26;21092;-71
2024/04/23 07:38:20;;;;;;;12.50;6.90;;;4.30;99.90;;;;;;5351695;26;20518;-69
2024/04/23 07:40:48;;;;;;;15.63;7.10;;;4.40;99.90;;;;;;5350338;26;21405;-70
2024/04/23 07:43:18;;;;;;;12.70;6.90;;;4.50;99.90;;;;;;5356195;26;20528;-71
2024/04/23 07:45:45;;;;;;;12.03;6.43;;;4.60;99.90;;;;;;5354441;26;20527;-69
2024/04/23 07:48:17;;;;;;;11.83;7.17;;;4.60;99.90;;;;;;5350985;26;21016;-69
2024/04/23 07:50:45;;;;;;;11.50;5.87;;;4.70;99.90;;;;;;5346579;26;21371;-70
2024/04/23 07:53:14;;;;;;;13.57;6.50;;;4.80;99.90;;;;;;5348143;26;20814;-69
2024/04/23 07:55:41;;;;;;;12.00;5.73;;;4.90;99.90;;;;;;5345706;26;20812;-72
2024/04/23 07:58:11;;;;;;;12.90;6.97;;;4.90;99.90;;;;;;5350080;26;20594;-70
2024/04/23 08:00:38;;;;;;;11.37;6.70;;;4.90;99.90;;;;;;5353038;26;20471;-70
2024/04/23 08:03:08;;;;;;;13.70;6.53;;;5.00;99.90;;;;;;5353502;26;20466;-72
2024/04/23 08:05:41;;;;;;;11.43;6.10;;;5.00;99.90;;;;;;5354377;26;20461;-70
2024/04/23 08:08:10;;;;;;;14.00;5.67;;;5.10;99.90;;;;;;5345769;26;20468;-72
2024/04/23 08:10:38;;;;;;;14.00;5.80;;;5.40;99.90;;;;;;5352919;26;20531;-71
2024/04/23 08:13:09;;;;;;;10.63;5.97;;;5.50;99.90;;;;;;5354746;26;20610;-70
2024/04/23 08:15:37;;;;;;;12.17;6.30;;;5.50;99.90;;;;;;5353751;26;20473;-71
2024/04/23 08:18:08;;;;;;;10.30;5.10;;;5.60;99.90;;;;;;5342680;26;21074;-71
2024/04/23 08:20:35;;;;;;;11.60;5.53;;;5.60;99.90;;;;;;5341815;26;20484;-69
2024/04/23 08:23:10;;;;;;;12.10;5.90;;;5.70;99.90;;;;;;5347109;26;20541;-71
2024/04/23 08:25:37;;;;;;;12.30;6.33;;;5.80;99.90;;;;;;5343383;26;20478;-70
2024/04/23 08:28:07;;;;;;;11.60;6.37;;;6.00;99.90;;;;;;5345762;26;20547;-70
2024/04/23 08:30:34;;;;;;;12.07;5.87;;;6.10;99.90;;;;;;5354611;26;20532;-70
2024/04/23 08:33:04;;;;;;;12.10;6.00;;;6.20;99.90;;;;;;5357830;26;20475;-70
2024/04/23 08:35:31;;;;;;;11.80;5.80;;;6.10;99.90;;;;;;5358585;26;20586;-71
2024/04/23 08:38:01;;;;;;;9.93;5.27;;;6.10;99.90;;;;;;5352315;26;20895;-70
2024/04/23 08:40:30;;;;;;;11.00;5.63;;;6.30;99.90;;;;;;5344455;26;20481;-71
2024/04/23 08:43:06;;;;;;;13.70;6.60;;;6.40;99.90;;;;;;5341703;26;20453;-70
2024/04/23 08:45:36;;;;;;;12.10;6.50;;;6.50;99.90;;;;;;5342548;26;20519;-69
2024/04/23 08:48:07;;;;;;;11.57;5.70;;;6.60;99.90;;;;;;5343893;26;20524;-70
2024/04/23 08:50:35;;;;;;;11.57;5.90;;;6.70;99.90;;;;;;5311728;26;20484;-70
2024/04/23 08:53:06;;;;;;;14.63;6.00;;;6.90;99.50;;;;;;5338363;26;20468;-69
2024/04/23 08:55:42;;;;;;;10.67;5.27;;;7.00;98.60;;;;;;5336953;26;20590;-71
2024/04/23 08:58:13;;;;;;;10.90;5.37;;;7.10;98.20;;;;;;5332765;26;20525;-70
2024/04/23 09:00:41;;;;;;;11.30;6.07;;;7.30;97.40;;;;;;5333963;26;20464;-72
2024/04/23 09:03:26;;;;;;;12.13;5.40;;;7.20;96.30;;;;;;5338402;26;20481;-70
2024/04/23 09:05:53;;;;;;;10.57;5.20;;;7.20;96.40;;;;;;5338479;26;20457;-70
2024/04/23 09:08:23;;;;;;;11.60;5.53;;;7.40;96.20;;;;;;5335132;26;20465;-68
2024/04/23 09:10:53;;;;;;;11.37;5.77;;;7.70;96.00;;;;;;5327776;26;20457;-70
2024/04/23 09:13:23;;;;;;;10.80;6.33;;;7.80;94.70;;;;;;5335421;26;20480;-70
2024/04/23 09:15:50;;;;;;;12.43;5.27;;;7.70;93.50;;;;;;5338322;26;20897;-71
2024/04/23 09:18:22;;;;;;;11.40;5.60;;;7.80;92.90;;;;;;5333582;26;20528;-69
2024/04/23 09:20:49;;;;;;;12.70;5.73;;;7.80;92.10;;;;;;5328259;26;20543;-70
2024/04/23 09:23:20;;;;;;;10.30;4.50;;;8.00;93.10;;;;;;5339089;26;20467;-70
2024/04/23 09:25:49;;;;;;;10.93;5.73;;;8.00;91.20;;;;;;5339428;26;20828;-70
2024/04/23 09:28:24;;;;;;;10.00;4.93;;;8.10;90.00;;;;;;5337132;26;20558;-72
2024/04/23 09:30:51;;;;;;;10.97;5.80;;;8.40;91.70;;;;;;5337648;26;20557;-71
2024/04/23 09:33:26;;;;;;;11.80;5.13;;;8.90;89.50;;;;;;5337591;26;21106;-70
2024/04/23 09:36:03;;;;;;;11.33;5.10;;;9.30;87.30;;;;;;5334182;26;21146;-70
2024/04/23 09:38:37;;;;;;;11.10;5.40;;;9.60;85.00;;;;;;5338121;26;20526;-70
2024/04/23 09:41:05;;;;;;;11.03;5.40;;;9.30;82.90;;;;;;5341443;26;20463;-70
2024/04/23 09:43:39;;;;;;;10.10;4.77;;;9.20;84.50;;;;;;5340650;26;20477;-69
2024/04/23 09:46:06;;;;;;;11.10;5.33;;;9.40;82.70;;;;;;5341208;26;20580;-70
2024/04/23 09:48:41;;;;;;;11.00;5.47;;;9.40;80.70;;;;;;5327033;26;20575;-70
2024/04/23 09:51:09;;;;;;;12.10;4.30;;;9.70;82.20;;;;;;5340686;26;20490;-70
2024/04/23 09:53:40;;;;;;;10.90;5.07;;;10.60;78.80;;;;;;5341310;26;20468;-69
2024/04/23 09:56:10;;;;;;;9.33;5.10;;;10.90;76.80;;;;;;5341107;26;20479;-69
2024/04/23 09:58:43;;;;;;;9.70;5.43;;;10.40;69.60;;;;;;5340336;26;20524;-69
2024/04/23 10:01:11;;;;;;;9.63;4.73;;;10.30;71.10;;;;;;5341280;26;20475;-69
2024/04/23 10:03:45;;;;;;;10.90;5.30;;;10.60;69.50;;;;;;5341362;26;20519;-69
2024/04/23 10:06:21;;;;;;;10.73;4.93;;;11.30;67.30;;;;;;5340056;26;20531;-70
2024/04/23 10:08:56;;;;;;;10.20;5.17;;;11.50;67.60;;;;;;5339698;26;20452;-71
2024/04/23 10:11:27;;;;;;;12.23;4.80;;;11.40;67.60;;;;;;5340372;26;20515;-69
2024/04/23 10:14:05;;;;;;;10.80;5.57;;;11.20;65.90;;;;;;5334709;26;20903;-70
2024/04/23 10:16:39;;;;;;;10.37;4.70;;;10.90;62.60;;;;;;5338854;26;20590;-70
2024/04/23 10:19:10;;;;;;;11.00;4.30;;;10.70;59.00;;;;;;5338492;26;20533;-70
2024/04/23 10:21:39;;;;;;;10.30;5.00;;;10.60;59.60;;;;;;5337816;26;20456;-69
2024/04/23 10:24:11;;;;;;;11.50;4.90;;;10.60;59.00;;;;;;5341036;26;20888;-71
2024/04/23 10:26:40;;;;;;;16.30;4.83;;;10.70;57.90;;;;;;5339215;26;20551;-73
2024/04/23 10:29:15;;;;;;;14.90;5.03;;;10.20;57.70;;;;;;5339722;26;20492;-68
2024/04/23 10:31:43;;;;;;;9.60;4.23;;;10.30;58.80;;;;;;5339612;26;20475;-70
2024/04/23 10:34:15;;;;;;;9.00;4.27;;;11.30;56.70;;;;;;5339716;26;20664;-70
2024/04/23 10:36:47;;;;;;;11.10;4.50;;;11.80;56.20;;;;;;5340486;26;20674;-70
2024/04/23 10:39:21;;;;;;;10.37;5.03;;;11.60;55.20;;;;;;5340052;26;20465;-70
2024/04/23 10:41:51;;;;;;;12.00;5.13;;;11.80;56.00;;;;;;5340455;26;21023;-70
2024/04/23 10:44:25;;;;;;;20.20;6.27;;;12.00;57.10;;;;;;5338864;26;20486;-68
2024/04/23 10:46:52;;;;;;;9.23;4.53;;;11.70;56.00;;;;;;5339654;26;20577;-68
2024/04/23 10:49:27;;;;;;;8.90;4.50;;;11.40;56.60;;;;;;5335354;26;20480;-69
2024/04/23 10:51:56;;;;;;;9.80;4.70;;;11.20;57.20;;;;;;5339863;26;20828;-68
2024/04/23 10:54:26;;;;;;;8.40;3.30;;;11.90;58.00;;;;;;5336780;26;20831;-70
2024/04/23 10:56:57;;;;;;;8.10;3.57;;;12.50;54.30;;;;;;5330159;26;20531;-70
2024/04/23 10:59:32;;;;;;;10.07;4.80;;;13.50;50.90;;;;;;5339250;26;20590;-71
2024/04/23 11:02:00;;;;;;;9.33;4.13;;;12.90;50.90;;;;;;5339750;26;20586;-70
2024/04/23 11:04:31;;;;;;;11.83;4.33;;;12.00;51.70;;;;;;5339605;26;20537;-68
2024/04/23 11:07:02;;;;;;;8.93;4.20;;;11.50;53.40;;;;;;5339828;26;20542;-69
2024/04/23 11:09:36;;;;;;;10.93;3.97;;;11.00;54.70;;;;;;5338396;26;21001;-70
2024/04/23 11:12:15;;;;;;;11.23;4.80;;;10.90;55.90;;;;;;5339800;26;20579;-68
2024/04/23 11:14:48;;;;;;;8.93;4.50;;;11.10;56.00;;;;;;5339419;26;20587;-70
2024/04/23 11:17:16;;;;;;;9.60;5.03;;;11.30;52.70;;;;;;5339365;26;20474;-70
2024/04/23 11:19:49;;;;;;;8.90;4.33;;;11.30;51.90;;;;;;5342557;26;21142;-69
2024/04/23 11:22:24;;;;;;;9.00;4.53;;;11.00;54.10;;;;;;5351856;26;20474;-69
2024/04/23 11:24:55;;;;;;;9.43;5.40;;;10.50;55.80;;;;;;5344413;26;20471;-68
2024/04/23 11:27:28;;;;;;;9.17;4.50;;;10.40;57.10;;;;;;5344104;26;20576;-71
2024/04/23 11:29:58;;;;;;;8.83;3.90;;;10.50;56.30;;;;;;5345898;26;20876;-70
2024/04/23 11:32:30;;;;;;;9.60;4.90;;;10.50;55.10;;;;;;5341770;26;20479;-69
2024/04/23 11:35:00;;;;;;;10.40;4.83;;;10.60;56.40;;;;;;5340460;26;20573;-68
2024/04/23 11:37:31;;;;;;;11.77;5.90;;;10.60;56.00;;;;;;5339506;26;20780;-69
2024/04/23 11:39:59;;;;;;;10.23;5.30;;;10.80;55.90;;;;;;5339177;26;20505;-69
2024/04/23 11:42:29;;;;;;;11.00;4.23;;;10.80;55.30;;;;;;5343526;26;20480;-70
2024/04/23 11:45:00;;;;;;;9.20;4.53;;;11.00;55.70;;;;;;5352427;26;20463;-70
2024/04/23 11:47:31;;;;;;;9.73;4.37;;;10.90;54.30;;;;;;5344290;26;20494;-70
2024/04/23 11:50:02;;;;;;;10.87;4.30;;;10.90;53.90;;;;;;5341063;26;20478;-69
2024/04/23 11:52:32;;;;;;;13.77;4.37;;;11.20;53.70;;;;;;5343893;26;21193;-69
2024/04/23 11:55:03;;;;;;;13.80;4.33;;;11.60;52.40;;;;;;5338688;26;20582;-71
2024/04/23 11:57:32;;;;;;;10.90;3.97;;;12.30;53.00;;;;;;5339727;26;20519;-70
2024/04/23 12:00:04;;;;;;;10.10;4.33;;;13.60;50.60;;;;;;5344484;26;20530;-73
2024/04/23 12:02:34;;;;;;;8.60;4.67;;;13.60;51.30;;;;;;5343966;26;20491;-70
2024/04/23 12:05:03;;;;;;;12.10;5.40;;;13.00;51.00;;;;;;5327748;26;20533;-70
2024/04/23 12:07:35;;;;;;;8.30;3.80;;;12.60;51.70;;;;;;5349198;26;20618;-71
2024/04/23 12:10:03;;;;;;;13.20;4.93;;;11.50;53.40;;;;;;5340283;26;20534;-70
2024/04/23 12:12:35;;;;;;;8.60;4.20;;;11.10;54.80;;;;;;5351888;26;20472;-69
2024/04/23 12:15:06;;;;;;;9.93;4.83;;;10.90;54.00;;;;;;5342855;26;20474;-71
2024/04/23 12:17:40;;;;;;;10.60;4.90;;;10.80;55.90;;;;;;5350226;26;20530;-69
2024/04/23 12:20:09;;;;;;;8.33;4.10;;;10.90;55.30;;;;;;5345032;26;20477;-68
2024/04/23 12:22:44;;;;;;;9.40;4.60;;;11.60;53.20;;;;;;5338257;26;21239;-71
2024/04/23 12:25:13;;;;;;;10.60;4.27;;;12.80;50.20;;;;;;5338284;26;20477;-71
2024/04/23 12:27:46;;;;;;;8.93;4.00;;;12.80;51.50;;;;;;5349980;26;20523;-68
2024/04/23 12:30:15;;;;;;;9.63;4.23;;;12.20;51.50;;;;;;5337080;26;20481;-69
2024/04/23 12:32:50;;;;;;;9.70;4.03;;;11.70;52.70;;;;;;5334300;26;20485;-72
2024/04/23 12:35:19;;;;;;;30.07;7.70;;;11.40;52.70;;;;;;5337917;26;20483;-71
2024/04/23 12:37:49;;;;;;;33.30;7.13;;;11.30;53.80;;;;;;5337261;26;20481;-70
2024/04/23 12:40:17;;;;;;;13.00;5.30;;;11.40;53.80;;;;;;5337518;26;20508;-70
2024/04/23 12:42:47;;;;;;;9.00;4.00;;;11.40;53.30;;;;;;5334804;26;20557;-70
2024/04/23 12:45:17;;;;;;;8.30;3.90;;;12.90;54.10;;;;;;5356936;26;20616;-69
2024/04/23 12:47:47;;;;;;;8.80;4.23;;;14.30;53.60;;;;;;5355987;26;20464;-70
2024/04/23 12:50:15;;;;;;;11.03;4.47;;;14.80;50.90;;;;;;5353525;26;20526;-70
2024/04/23 12:52:45;;;;;;;8.53;4.03;;;14.10;50.90;;;;;;5351259;26;20548;-70
2024/04/23 12:55:13;;;;;;;11.60;5.03;;;13.30;50.10;;;;;;5346116;26;20471;-71
2024/04/23 12:57:43;;;;;;;10.60;3.77;;;12.70;50.60;;;;;;5354030;26;20479;-70
2024/04/23 13:00:11;;;;;;;8.17;4.10;;;12.30;51.90;;;;;;5354259;26;20483;-71
2024/04/23 13:02:43;;;;;;;9.63;4.83;;;11.80;52.40;;;;;;5352144;26;20875;-73
2024/04/23 13:05:11;;;;;;;9.03;3.67;;;11.60;50.80;;;;;;5358369;26;20532;-69
2024/04/23 13:07:40;;;;;;;8.40;4.30;;;11.60;51.50;;;;;;5355208;26;20535;-71